createdAt,value
2019-05-11T00:02:23.030Z,9.49
2019-05-11T00:04:49.059Z,9.59
2019-05-11T00:07:34.759Z,9.57
2019-05-11T00:10:00.725Z,9.57
2019-05-11T00:12:26.582Z,9.71
2019-05-11T00:14:52.415Z,9.69
2019-05-11T00:17:18.306Z,9.55
2019-05-11T00:19:44.110Z,9.50
2019-05-11T00:22:09.934Z,9.51
2019-05-11T00:24:35.794Z,9.64
2019-05-11T00:27:01.651Z,9.73
2019-05-11T00:29:27.520Z,9.68
2019-05-11T00:31:53.313Z,9.80
2019-05-11T00:34:19.158Z,9.73
2019-05-11T00:36:45.000Z,9.67
2019-05-11T00:39:10.861Z,9.65
2019-05-11T00:41:36.785Z,9.64
2019-05-11T00:44:02.744Z,9.65
2019-05-11T00:46:28.679Z,9.60
2019-05-11T00:48:54.546Z,9.66
2019-05-11T00:51:20.373Z,9.69
2019-05-11T00:53:46.230Z,9.47
2019-05-11T00:56:12.074Z,9.30
2019-05-11T00:58:37.909Z,9.35
2019-05-11T01:01:03.971Z,9.40
2019-05-11T01:03:29.823Z,9.50
2019-05-11T01:05:55.707Z,9.38
2019-05-11T01:08:21.523Z,9.41
2019-05-11T01:10:47.412Z,9.46
2019-05-11T01:13:13.253Z,9.49
2019-05-11T01:15:39.083Z,9.53
2019-05-11T01:18:05.043Z,9.52
2019-05-11T01:20:50.847Z,9.12
2019-05-11T01:23:16.711Z,9.12
2019-05-11T01:25:42.655Z,9.01
2019-05-11T01:28:08.578Z,9.00
2019-05-11T01:30:34.377Z,9.05
2019-05-11T01:33:00.212Z,9.09
2019-05-11T01:35:26.038Z,9.13
2019-05-11T01:37:52.211Z,9.23
2019-05-11T01:40:18.155Z,9.36
2019-05-11T01:42:44.018Z,9.42
2019-05-11T01:45:10.093Z,9.54
2019-05-11T01:47:35.932Z,9.60
2019-05-11T01:50:01.882Z,9.56
2019-05-11T01:52:27.733Z,9.67
2019-05-11T01:54:53.579Z,9.74
2019-05-11T01:57:19.405Z,9.67
2019-05-11T01:59:45.282Z,9.71
2019-05-11T02:02:11.108Z,9.81
2019-05-11T02:04:36.966Z,9.83
2019-05-11T02:07:02.919Z,9.74
2019-05-11T02:09:28.777Z,9.52
2019-05-11T02:11:54.628Z,9.57
2019-05-11T02:14:20.539Z,9.58
2019-05-11T02:16:46.368Z,9.60
2019-05-11T02:19:12.216Z,9.43
2019-05-11T02:21:38.066Z,9.47
2019-05-11T02:24:03.987Z,9.45
2019-05-11T02:26:29.836Z,9.31
2019-05-11T02:28:55.692Z,9.27
2019-05-11T02:31:21.541Z,9.18
2019-05-11T02:33:47.379Z,9.14
2019-05-11T02:36:13.242Z,9.17
2019-05-11T02:38:39.090Z,9.11
2019-05-11T02:41:05.035Z,9.12
2019-05-11T02:43:30.846Z,9.09
2019-05-11T02:45:56.698Z,9.13
2019-05-11T02:48:42.514Z,9.22
2019-05-11T02:51:50.027Z,9.26
2019-05-11T02:54:15.986Z,9.22
2019-05-11T02:56:41.859Z,9.19
2019-05-11T02:59:07.721Z,9.35
2019-05-11T03:01:33.589Z,9.38
2019-05-11T03:03:59.421Z,9.28
2019-05-11T03:06:25.283Z,9.07
2019-05-11T03:08:51.137Z,9.28
2019-05-11T03:11:16.977Z,9.27
2019-05-11T03:13:42.799Z,9.31
2019-05-11T03:16:50.293Z,9.28
2019-05-11T03:19:16.330Z,9.24
2019-05-11T03:21:42.187Z,9.24
2019-05-11T03:24:08.018Z,9.32
2019-05-11T03:29:47.349Z,9.50
2019-05-11T03:32:13.208Z,9.50
2019-05-11T03:34:39.058Z,9.46
2019-05-11T03:37:04.905Z,9.33
2019-05-11T03:39:30.743Z,9.40
2019-05-11T03:42:13.338Z,9.30
2019-05-11T03:44:24.358Z,9.28
2019-05-11T03:46:50.197Z,9.37
2019-05-11T03:49:16.057Z,9.45
2019-05-11T03:51:42.013Z,9.42
2019-05-11T03:54:07.856Z,9.41
2019-05-11T03:56:33.695Z,9.36
2019-05-11T03:58:59.536Z,9.14
2019-05-11T04:01:25.491Z,9.02
2019-05-11T04:03:51.419Z,9.12
2019-05-11T04:06:17.262Z,9.08
2019-05-11T04:08:43.121Z,9.06
2019-05-11T04:11:09.059Z,9.07
2019-05-11T04:13:34.913Z,9.07
2019-05-11T04:16:00.774Z,9.04
2019-05-11T04:18:26.716Z,9.12
2019-05-11T04:20:52.557Z,9.18
2019-05-11T04:23:18.390Z,9.24
2019-05-11T04:25:44.239Z,9.26
2019-05-11T04:28:10.079Z,9.26
2019-05-11T04:30:35.924Z,9.15
2019-05-11T04:33:01.785Z,9.12
2019-05-11T04:35:27.637Z,9.18
2019-05-11T04:37:53.476Z,9.17
2019-05-11T04:40:19.438Z,9.26
2019-05-11T04:42:54.856Z,9.40
2019-05-11T04:45:13.212Z,9.52
2019-05-11T04:47:39.034Z,9.48
2019-05-11T04:50:46.534Z,9.50
2019-05-11T04:53:12.412Z,9.49
2019-05-11T04:55:38.246Z,9.43
2019-05-11T04:58:04.195Z,9.41
2019-05-11T05:00:30.147Z,9.41
2019-05-11T05:02:56.017Z,9.45
2019-05-11T05:05:21.894Z,9.50
2019-05-11T05:07:50.344Z,9.59
2019-05-11T05:10:20.111Z,9.60
2019-05-11T05:12:50.769Z,9.59
2019-05-11T05:15:31.022Z,9.77
2019-05-11T05:17:56.893Z,9.89
2019-05-11T05:20:22.743Z,9.89
2019-05-11T05:22:48.594Z,9.73
2019-05-11T05:25:14.408Z,9.66
2019-05-11T05:27:40.252Z,9.75
2019-05-11T05:30:06.197Z,9.59
2019-05-11T05:32:53.830Z,9.54
2019-05-11T05:35:19.760Z,9.54
2019-05-11T05:37:45.692Z,9.52
2019-05-11T05:40:11.644Z,9.69
2019-05-11T05:42:37.485Z,9.67
2019-05-11T05:45:23.332Z,9.74
2019-05-11T05:50:56.797Z,9.71
2019-05-11T05:53:22.639Z,9.60
2019-05-11T05:55:48.488Z,9.64
2019-05-11T05:58:14.422Z,9.48
2019-05-11T06:00:40.508Z,9.45
2019-05-11T06:03:06.339Z,9.48
2019-05-11T06:05:32.208Z,9.55
2019-05-11T06:07:58.038Z,9.53
2019-05-11T06:10:23.890Z,9.57
2019-05-11T06:12:49.894Z,9.61
2019-05-11T06:15:15.780Z,9.69
2019-05-11T06:20:57.265Z,9.77
2019-05-11T06:23:24.942Z,9.69
2019-05-11T06:26:10.686Z,9.80
2019-05-11T06:28:56.432Z,9.88
2019-05-11T06:31:22.409Z,9.89
2019-05-11T06:33:48.279Z,9.89
2019-05-11T06:36:14.154Z,9.94
2019-05-11T06:38:39.996Z,9.85
2019-05-11T06:41:05.833Z,9.90
2019-05-11T06:43:31.703Z,9.60
2019-05-11T06:45:57.550Z,10.04
2019-05-11T06:48:23.425Z,10.05
2019-05-11T06:50:49.285Z,9.98
2019-05-11T06:53:15.218Z,10.02
2019-05-11T06:55:41.098Z,10.10
2019-05-11T06:58:06.944Z,10.06
2019-05-11T07:00:32.870Z,10.10
2019-05-11T07:02:58.852Z,10.25
2019-05-11T07:05:24.686Z,10.42
2019-05-11T07:07:50.532Z,10.45
2019-05-11T07:10:16.511Z,10.64
2019-05-11T07:12:42.426Z,10.57
2019-05-11T07:15:08.403Z,10.62
2019-05-11T07:17:34.272Z,10.93
2019-05-11T07:20:00.271Z,10.80
2019-05-11T07:22:26.143Z,10.86
2019-05-11T07:24:51.983Z,10.65
2019-05-11T07:27:17.905Z,10.85
2019-05-11T07:29:43.766Z,10.88
2019-05-11T07:32:19.623Z,11.07
2019-05-11T07:34:38.350Z,11.29
2019-05-11T07:37:05.253Z,11.29
2019-05-11T07:39:31.132Z,11.48
2019-05-11T07:41:58.470Z,11.47
2019-05-11T07:44:44.650Z,11.45
2019-05-11T07:47:10.500Z,11.45
2019-05-11T07:49:38.211Z,11.57
2019-05-11T07:52:23.993Z,11.75
2019-05-11T07:54:52.831Z,11.75
2019-05-11T07:57:18.647Z,11.74
2019-05-11T08:00:05.358Z,11.76
2019-05-11T08:02:32.395Z,11.76
2019-05-11T08:04:59.053Z,11.77
2019-05-11T08:07:24.997Z,11.66
2019-05-11T08:09:50.835Z,11.66
2019-05-11T08:12:19.028Z,11.64
2019-05-11T08:15:09.969Z,11.77
2019-05-11T08:17:32.424Z,11.77
2019-05-11T08:19:58.285Z,11.86
2019-05-11T08:22:24.202Z,11.88
2019-05-11T08:24:50.057Z,11.86
2019-05-11T08:27:16.011Z,11.90
2019-05-11T08:29:42.322Z,11.94
2019-05-11T08:32:28.790Z,12.25
2019-05-11T08:35:38.810Z,12.25
2019-05-11T08:38:04.367Z,12.21
2019-05-11T08:40:30.304Z,12.51
2019-05-11T08:42:58.306Z,12.71
2019-05-11T08:48:18.927Z,13.41
2019-05-11T08:50:44.794Z,13.64
2019-05-11T08:53:10.659Z,13.69
2019-05-11T08:55:38.210Z,13.72
2019-05-11T08:58:04.279Z,13.81
2019-05-11T09:00:30.115Z,13.78
2019-05-11T09:02:58.211Z,13.70
2019-05-11T09:05:23.849Z,13.63
2019-05-11T09:07:50.016Z,13.56
2019-05-11T09:10:18.342Z,13.69
2019-05-11T09:12:43.672Z,13.80
2019-05-11T09:15:51.151Z,13.85
2019-05-11T09:18:18.782Z,13.88
2019-05-11T09:20:44.772Z,13.88
2019-05-11T09:23:10.710Z,14.03
2019-05-11T09:25:38.502Z,14.02
2019-05-11T09:28:04.407Z,14.14
2019-05-11T09:30:30.236Z,14.13
2019-05-11T09:32:58.105Z,14.09
2019-05-11T09:35:23.920Z,14.13
2019-05-11T09:40:44.189Z,14.11
2019-05-11T09:43:10.066Z,14.07
2019-05-11T09:45:45.823Z,14.05
2019-05-11T09:48:03.787Z,14.03
2019-05-11T09:50:29.757Z,14.01
2019-05-11T09:52:57.497Z,14.11
2019-05-11T09:55:23.372Z,14.28
2019-05-11T09:57:49.218Z,14.31
2019-05-11T10:00:58.596Z,14.47
2019-05-11T10:03:24.478Z,14.55
2019-05-11T10:05:50.385Z,14.72
2019-05-11T10:08:18.289Z,14.85
2019-05-11T10:10:44.097Z,15.13
2019-05-11T10:13:09.926Z,15.41
2019-05-11T10:15:35.795Z,15.43
2019-05-11T10:18:01.661Z,15.33
2019-05-11T10:20:28.627Z,15.47
2019-05-11T10:22:57.775Z,15.33
2019-05-11T10:25:23.155Z,15.58
2019-05-11T10:27:49.279Z,15.83
2019-05-11T10:33:22.385Z,15.86
2019-05-11T10:35:48.498Z,16.48
2019-05-11T10:38:14.385Z,16.28
2019-05-11T10:41:21.884Z,16.18
2019-05-11T10:43:49.006Z,16.09
2019-05-11T10:46:22.243Z,16.02
2019-05-11T10:48:43.452Z,16.37
2019-05-11T10:51:09.302Z,16.29
2019-05-11T10:53:35.148Z,16.19
2019-05-11T10:56:01.128Z,15.85
2019-05-11T10:58:28.494Z,15.52
2019-05-11T11:00:54.746Z,15.30
2019-05-11T11:03:20.599Z,15.10
2019-05-11T11:05:48.610Z,14.88
2019-05-11T11:08:14.236Z,14.66
2019-05-11T11:10:40.227Z,14.15
2019-05-11T11:13:08.156Z,13.66
2019-05-11T11:15:34.130Z,13.39
2019-05-11T11:18:00.087Z,13.16
2019-05-11T11:20:28.010Z,13.06
2019-05-11T11:23:13.875Z,12.58
2019-05-11T11:25:39.743Z,12.38
2019-05-11T11:28:05.602Z,12.38
2019-05-11T11:30:31.545Z,12.25
2019-05-11T11:32:58.789Z,12.23
2019-05-11T11:35:27.765Z,12.21
2019-05-11T11:37:53.327Z,12.21
2019-05-11T11:40:19.385Z,12.27
2019-05-11T11:42:47.620Z,12.61
2019-05-11T11:45:32.874Z,12.69
2019-05-11T11:48:19.013Z,12.82
2019-05-11T11:50:45.116Z,12.82
2019-05-11T11:53:11.098Z,12.89
2019-05-11T11:55:39.010Z,12.92
2019-05-11T11:58:04.739Z,13.03
2019-05-11T12:00:30.679Z,13.18
2019-05-11T12:02:58.022Z,13.53
2019-05-11T12:05:24.429Z,13.78
2019-05-11T12:07:50.307Z,14.27
2019-05-11T12:10:18.387Z,14.73
2019-05-11T12:12:44.610Z,15.04
2019-05-11T12:15:10.701Z,15.61
2019-05-11T12:17:37.663Z,15.83
2019-05-11T12:20:48.071Z,15.94
2019-05-11T12:23:13.837Z,16.20
2019-05-11T12:25:40.634Z,16.83
2019-05-11T12:28:08.101Z,16.75
2019-05-11T12:30:37.545Z,16.49
2019-05-11T12:33:03.103Z,16.34
2019-05-11T12:35:28.953Z,16.70
2019-05-11T12:37:54.826Z,16.78
2019-05-11T12:40:20.771Z,16.85
2019-05-11T12:42:48.942Z,17.33
2019-05-11T12:45:14.703Z,16.96
2019-05-11T12:47:40.570Z,17.21
2019-05-11T12:50:48.575Z,17.38
2019-05-11T12:53:14.427Z,17.36
2019-05-11T12:55:40.290Z,17.06
2019-05-11T12:58:08.358Z,17.13
2019-05-11T13:00:33.942Z,17.83
2019-05-11T13:02:59.918Z,17.60
2019-05-11T13:05:25.772Z,17.00
2019-05-11T13:07:51.630Z,17.77
2019-05-11T13:10:17.938Z,18.27
2019-05-11T13:12:45.535Z,18.58
2019-05-11T13:15:11.707Z,19.41
2019-05-11T13:17:40.702Z,19.08
2019-05-11T13:20:48.257Z,19.21
2019-05-11T13:23:15.124Z,18.17
2019-05-11T13:25:40.960Z,17.12
2019-05-11T13:28:08.589Z,16.82
2019-05-11T13:30:34.727Z,16.31
2019-05-11T13:33:00.617Z,16.06
2019-05-11T13:35:28.430Z,15.84
2019-05-11T13:37:54.253Z,15.71
2019-05-11T13:40:20.196Z,15.41
2019-05-11T13:42:46.194Z,15.25
2019-05-11T13:45:14.056Z,15.33
2019-05-11T13:47:51.618Z,15.27
2019-05-11T13:50:49.404Z,15.29
2019-05-11T13:53:15.250Z,16.16
2019-05-11T13:55:41.118Z,16.11
2019-05-11T13:58:08.277Z,16.33
2019-05-11T14:00:34.883Z,16.88
2019-05-11T14:05:48.433Z,17.10
2019-05-11T14:08:18.361Z,16.54
2019-05-11T14:10:44.302Z,16.48
2019-05-11T14:13:10.163Z,16.56
2019-05-11T14:15:37.655Z,16.63
2019-05-11T14:18:08.407Z,16.88
2019-05-11T14:20:31.537Z,17.42
2019-05-11T14:22:58.264Z,17.69
2019-05-11T14:25:25.146Z,17.55
2019-05-11T14:27:51.089Z,17.46
2019-05-11T14:30:19.125Z,16.75
2019-05-11T14:32:44.896Z,16.59
2019-05-11T14:35:12.316Z,16.62
2019-05-11T14:37:38.748Z,17.10
2019-05-11T14:40:48.052Z,16.69
2019-05-11T14:43:14.011Z,16.90
2019-05-11T14:45:39.886Z,16.50
2019-05-11T14:48:19.367Z,16.43
2019-05-11T14:50:33.627Z,16.25
2019-05-11T14:52:59.484Z,16.05
2019-05-11T14:55:25.320Z,15.79
2019-05-11T14:57:51.172Z,15.32
2019-05-11T15:00:18.609Z,15.39
2019-05-11T15:02:45.019Z,15.21
2019-05-11T15:05:10.852Z,15.11
2019-05-11T15:07:38.519Z,15.23
2019-05-11T15:10:48.636Z,15.42
2019-05-11T15:13:13.943Z,15.28
2019-05-11T15:16:21.419Z,15.38
2019-05-11T15:18:48.530Z,15.60
2019-05-11T15:21:15.154Z,15.59
2019-05-11T15:23:41.009Z,15.61
2019-05-11T15:26:09.556Z,15.76
2019-05-11T15:28:34.708Z,15.70
2019-05-11T15:31:00.641Z,15.48
2019-05-11T15:33:27.893Z,15.79
2019-05-11T15:35:54.440Z,16.01
2019-05-11T15:38:20.273Z,15.83
2019-05-11T15:40:46.101Z,15.89
2019-05-11T15:43:11.944Z,15.80
2019-05-11T15:45:38.195Z,15.78
2019-05-11T15:48:08.238Z,15.77
2019-05-11T15:50:33.623Z,15.78
2019-05-11T15:52:59.573Z,15.69
2019-05-11T15:55:27.649Z,15.50
2019-05-11T15:57:53.527Z,15.28
2019-05-11T16:03:26.896Z,15.26
2019-05-11T16:06:12.728Z,15.34
2019-05-11T16:08:38.621Z,15.37
2019-05-11T16:11:04.476Z,15.65
2019-05-11T16:13:30.354Z,15.67
2019-05-11T16:16:16.160Z,15.59
2019-05-11T16:18:42.076Z,15.42
2019-05-11T16:21:28.546Z,14.86
2019-05-11T16:23:54.500Z,14.47
2019-05-11T16:26:40.345Z,13.98
2019-05-11T16:29:11.063Z,13.94
2019-05-11T16:34:21.659Z,14.20
2019-05-11T16:36:48.075Z,13.73
2019-05-11T16:39:15.422Z,13.89
2019-05-11T16:42:01.250Z,13.82
2019-05-11T16:44:27.114Z,14.03
2019-05-11T16:46:52.938Z,14.05
2019-05-11T16:49:38.873Z,13.90
2019-05-11T16:52:04.903Z,14.07
2019-05-11T16:54:30.781Z,13.95
2019-05-11T16:56:57.970Z,13.96
2019-05-11T16:59:24.423Z,13.81
2019-05-11T17:01:50.367Z,13.89
2019-05-11T17:04:16.308Z,13.78
2019-05-11T17:06:42.144Z,13.51
2019-05-11T17:09:08.883Z,13.48
2019-05-11T17:11:38.440Z,13.35
2019-05-11T17:14:03.851Z,12.91
2019-05-11T17:16:29.831Z,12.70
2019-05-11T17:18:55.678Z,12.57
2019-05-11T17:21:21.557Z,12.75
2019-05-11T17:23:48.776Z,12.69
2019-05-11T17:26:35.055Z,12.90
2019-05-11T17:29:00.955Z,12.90
2019-05-11T17:31:26.816Z,12.41
2019-05-11T17:33:52.695Z,12.26
2019-05-11T17:36:18.803Z,12.36
2019-05-11T17:39:07.317Z,12.31
2019-05-11T17:44:40.441Z,12.53
2019-05-11T17:47:08.315Z,12.49
2019-05-11T17:49:59.139Z,12.90
2019-05-11T17:52:15.233Z,12.90
2019-05-11T17:54:41.101Z,12.92
2019-05-11T17:57:27.766Z,12.84
2019-05-11T17:59:54.680Z,12.78
2019-05-11T18:02:20.536Z,12.75
2019-05-11T18:04:49.180Z,12.60
2019-05-11T18:07:25.140Z,12.20
2019-05-11T18:10:23.921Z,12.42
2019-05-11T18:13:09.662Z,12.39
2019-05-11T18:15:57.731Z,12.39
2019-05-11T18:18:24.145Z,12.22
2019-05-11T18:20:51.013Z,11.98
2019-05-11T18:23:17.611Z,11.83
2019-05-11T18:25:44.747Z,12.07
2019-05-11T18:28:14.010Z,12.25
2019-05-11T18:30:38.877Z,12.18
2019-05-11T18:33:08.366Z,12.19
2019-05-11T18:35:33.973Z,12.09
2019-05-11T18:37:59.868Z,12.07
2019-05-11T18:40:25.863Z,11.95
2019-05-11T18:42:51.712Z,11.86
2019-05-11T18:45:18.819Z,11.96
2019-05-11T18:47:45.558Z,11.92
2019-05-11T18:50:56.127Z,11.91
2019-05-11T18:53:21.057Z,11.86
2019-05-11T18:55:48.723Z,11.92
2019-05-11T18:58:15.041Z,11.98
2019-05-11T19:00:41.019Z,12.05
2019-05-11T19:03:08.824Z,12.21
2019-05-11T19:05:34.667Z,12.23
2019-05-11T19:08:00.555Z,12.18
2019-05-11T19:10:27.738Z,11.95
2019-05-11T19:12:54.388Z,11.99
2019-05-11T19:15:20.260Z,11.98
2019-05-11T19:17:48.781Z,12.01
2019-05-11T19:20:14.145Z,12.08
2019-05-11T19:22:39.996Z,12.04
2019-05-11T19:25:48.052Z,11.94
2019-05-11T19:28:14.109Z,11.63
2019-05-11T19:30:39.988Z,11.29
2019-05-11T19:33:08.259Z,11.45
2019-05-11T19:35:33.754Z,11.47
2019-05-11T19:37:59.624Z,11.39
2019-05-11T19:40:25.495Z,11.26
2019-05-11T19:45:58.609Z,11.49
2019-05-11T19:48:24.464Z,11.49
2019-05-11T19:51:03.690Z,11.36
2019-05-11T19:53:18.739Z,11.46
2019-05-11T19:56:07.785Z,11.09
2019-05-11T19:58:33.702Z,11.09
2019-05-11T20:00:59.691Z,11.10
2019-05-11T20:04:08.252Z,10.95
2019-05-11T20:06:54.940Z,10.69
2019-05-11T20:09:20.809Z,10.69
2019-05-11T20:11:47.612Z,10.64
2019-05-11T20:14:34.504Z,10.43
2019-05-11T20:17:00.515Z,10.43
2019-05-11T20:19:48.896Z,10.64
2019-05-11T20:22:14.274Z,10.64
2019-05-11T20:24:40.127Z,10.63
2019-05-11T20:27:07.938Z,10.64
2019-05-11T20:29:33.772Z,10.64
2019-05-11T20:31:59.605Z,10.69
2019-05-11T20:34:25.591Z,10.50
2019-05-11T20:36:51.462Z,10.56
2019-05-11T20:39:17.903Z,10.49
2019-05-11T20:42:26.795Z,10.47
2019-05-11T20:44:52.781Z,10.33
2019-05-11T20:47:18.714Z,10.22
2019-05-11T20:49:44.614Z,10.10
2019-05-11T20:52:10.474Z,10.04
2019-05-11T20:54:38.608Z,10.08
2019-05-11T20:57:04.492Z,9.83
2019-05-11T20:59:30.328Z,9.80
2019-05-11T21:01:58.088Z,9.77
2019-05-11T21:04:43.865Z,9.59
2019-05-11T21:07:09.842Z,9.62
2019-05-11T21:09:37.827Z,9.62
2019-05-11T21:12:25.342Z,9.67
2019-05-11T21:14:51.208Z,9.67
2019-05-11T21:17:18.136Z,9.52
2019-05-11T21:19:44.971Z,9.43
2019-05-11T21:22:10.845Z,9.51
2019-05-11T21:24:36.799Z,9.51
2019-05-11T21:27:02.667Z,9.25
2019-05-11T21:29:31.359Z,9.28
2019-05-11T21:31:58.751Z,9.31
2019-05-11T21:34:34.497Z,9.32
2019-05-11T21:37:00.377Z,9.22
2019-05-11T21:39:28.511Z,9.24
2019-05-11T21:42:13.870Z,9.29
2019-05-11T21:44:39.863Z,9.18
2019-05-11T21:47:07.726Z,9.18
2019-05-11T21:49:48.489Z,9.26
2019-05-11T21:52:14.418Z,9.26
2019-05-11T21:54:40.472Z,9.15
2019-05-11T21:57:08.291Z,8.95
2019-05-11T21:59:34.105Z,8.96
2019-05-11T22:02:00.037Z,8.83
2019-05-11T22:04:28.308Z,8.82
2019-05-11T22:06:53.769Z,8.84
2019-05-11T22:09:19.764Z,8.77
2019-05-11T22:11:45.646Z,8.72
2019-05-11T22:14:11.502Z,8.57
2019-05-11T22:16:38.667Z,8.55
2019-05-11T22:19:25.022Z,8.57
2019-05-11T22:22:21.143Z,8.54
2019-05-11T22:24:38.520Z,8.54
2019-05-11T22:27:04.477Z,8.59
2019-05-11T22:29:30.322Z,8.58
2019-05-11T22:31:57.697Z,8.44
2019-05-11T22:34:24.067Z,8.47
2019-05-11T22:36:49.943Z,8.37
2019-05-11T22:39:18.617Z,8.33
2019-05-11T22:41:43.661Z,8.38
2019-05-11T22:44:10.871Z,8.38
2019-05-11T22:46:38.519Z,8.49
2019-05-11T22:49:05.100Z,8.23
2019-05-11T22:51:30.974Z,8.37
2019-05-11T22:53:58.919Z,8.43
2019-05-11T22:56:44.457Z,8.43
2019-05-11T22:59:30.184Z,8.22
2019-05-11T23:01:56.015Z,8.22
2019-05-11T23:04:21.851Z,8.13
2019-05-11T23:06:47.835Z,8.30
2019-05-11T23:09:13.631Z,8.20
2019-05-11T23:11:39.552Z,8.06
2019-05-11T23:14:05.399Z,8.10
2019-05-11T23:16:31.245Z,8.26
2019-05-11T23:18:57.089Z,8.17
2019-05-11T23:21:22.921Z,8.22
2019-05-11T23:23:48.771Z,8.07
2019-05-11T23:26:14.592Z,8.01
2019-05-11T23:28:40.453Z,7.85
2019-05-11T23:31:08.887Z,8.09
2019-05-11T23:33:34.091Z,7.86
2019-05-11T23:36:00.049Z,7.86
2019-05-11T23:38:28.073Z,7.82
2019-05-11T23:40:53.664Z,7.73
2019-05-11T23:43:19.535Z,7.66
2019-05-11T23:45:45.378Z,7.63
2019-05-11T23:48:11.223Z,7.55
2019-05-11T23:50:38.598Z,7.59
2019-05-11T23:53:06.823Z,7.56
2019-05-11T23:55:32.677Z,7.62
2019-05-11T23:57:58.524Z,7.82
